createdAt,value
2023-12-11T00:01:06.729Z,5.49
2023-12-11T00:06:16.720Z,5.49
2023-12-11T00:11:19.965Z,5.50
2023-12-11T00:16:23.398Z,5.57
2023-12-11T00:21:26.569Z,5.71
2023-12-11T00:26:29.838Z,5.74
2023-12-11T00:31:33.220Z,5.77
2023-12-11T00:36:36.436Z,5.89
2023-12-11T00:41:39.701Z,6.02
2023-12-11T00:46:42.990Z,6.13
2023-12-11T00:51:47.865Z,6.06
2023-12-11T00:56:51.250Z,5.92
2023-12-11T01:01:54.560Z,5.84
2023-12-11T01:06:57.785Z,5.62
2023-12-11T01:12:00.933Z,5.55
2023-12-11T01:17:36.259Z,5.46
2023-12-11T01:22:27.458Z,5.43
2023-12-11T01:27:31.159Z,5.48
2023-12-11T01:32:34.895Z,5.49
2023-12-11T01:37:38.150Z,5.46
2023-12-11T01:42:41.427Z,5.52
2023-12-11T01:47:45.182Z,5.47
2023-12-11T01:52:48.525Z,5.41
2023-12-11T01:57:52.687Z,5.35
2023-12-11T02:02:55.902Z,5.21
2023-12-11T02:08:00.221Z,5.24
2023-12-11T02:13:05.233Z,5.22
2023-12-11T02:18:10.472Z,5.28
2023-12-11T02:23:24.833Z,5.29
2023-12-11T02:28:28.161Z,5.31
2023-12-11T02:33:31.469Z,5.39
2023-12-11T02:38:34.925Z,5.44
2023-12-11T02:43:38.126Z,5.65
2023-12-11T02:48:41.444Z,5.70
2023-12-11T02:53:44.854Z,5.87
2023-12-11T02:58:48.040Z,6.15
2023-12-11T03:03:51.416Z,6.26
2023-12-11T03:08:54.614Z,6.14
2023-12-11T03:13:57.844Z,6.15
2023-12-11T03:19:01.183Z,6.09
2023-12-11T03:24:04.595Z,6.20
2023-12-11T03:29:07.659Z,6.57
2023-12-11T03:34:10.890Z,6.60
2023-12-11T03:39:14.037Z,6.69
2023-12-11T03:44:17.147Z,6.66
2023-12-11T03:49:21.620Z,6.63
2023-12-11T03:54:24.934Z,6.77
2023-12-11T03:59:28.097Z,6.77
2023-12-11T04:04:31.680Z,6.84
2023-12-11T04:09:34.960Z,6.99
2023-12-11T04:14:38.320Z,6.92
2023-12-11T04:19:41.550Z,6.94
2023-12-11T04:24:44.585Z,6.96
2023-12-11T04:29:47.911Z,6.99
2023-12-11T04:34:50.984Z,6.98
2023-12-11T04:39:54.035Z,7.18
2023-12-11T04:44:57.136Z,7.33
2023-12-11T04:50:00.572Z,7.32
2023-12-11T04:55:04.217Z,7.23
2023-12-11T05:00:08.687Z,7.15
2023-12-11T05:05:12.175Z,7.31
2023-12-11T05:10:15.577Z,7.29
2023-12-11T05:15:18.771Z,7.28
2023-12-11T05:20:22.057Z,7.45
2023-12-11T05:25:25.357Z,7.58
2023-12-11T05:30:28.574Z,7.73
2023-12-11T05:35:31.770Z,7.78
2023-12-11T05:40:35.016Z,7.77
2023-12-11T05:45:38.744Z,7.84
2023-12-11T05:50:43.008Z,7.92
2023-12-11T05:55:46.215Z,8.01
2023-12-11T06:00:49.448Z,7.93
2023-12-11T06:05:59.416Z,7.46
2023-12-11T06:11:02.717Z,7.79
2023-12-11T06:16:06.475Z,7.94
2023-12-11T06:21:19.056Z,7.80
2023-12-11T06:26:32.984Z,7.55
2023-12-11T06:31:36.407Z,7.45
2023-12-11T06:36:39.712Z,7.50
2023-12-11T06:41:43.140Z,7.52
2023-12-11T06:46:47.261Z,7.61
2023-12-11T06:51:51.340Z,7.64
2023-12-11T06:56:54.680Z,7.72
2023-12-11T07:02:05.880Z,7.62
2023-12-11T07:07:09.638Z,7.61
2023-12-11T07:12:12.985Z,7.57
2023-12-11T07:17:16.240Z,7.60
2023-12-11T07:22:19.495Z,7.52
2023-12-11T07:27:22.768Z,7.51
2023-12-11T07:32:26.470Z,7.48
2023-12-11T07:37:29.973Z,7.63
2023-12-11T07:42:33.401Z,7.81
2023-12-11T07:47:37.066Z,7.85
2023-12-11T07:52:40.539Z,7.67
2023-12-11T07:57:44.257Z,7.69
2023-12-11T08:02:47.555Z,7.67
2023-12-11T08:07:50.670Z,7.58
2023-12-11T08:12:54.220Z,7.66
2023-12-11T08:17:57.806Z,7.73
2023-12-11T08:23:01.111Z,7.91
2023-12-11T08:28:04.365Z,7.92
2023-12-11T08:33:07.563Z,7.95
2023-12-11T08:38:10.836Z,8.04
2023-12-11T08:43:14.290Z,8.14
2023-12-11T08:48:17.693Z,8.40
2023-12-11T08:53:21.747Z,8.76
2023-12-11T08:58:25.679Z,9.09
2023-12-11T09:03:28.994Z,9.25
2023-12-11T09:08:32.401Z,9.29
2023-12-11T09:13:36.235Z,9.40
2023-12-11T09:18:39.528Z,9.52
2023-12-11T09:23:42.918Z,9.55
2023-12-11T09:28:51.519Z,9.63
2023-12-11T09:33:55.811Z,9.40
2023-12-11T09:38:59.942Z,9.08
2023-12-11T09:44:04.695Z,8.86
2023-12-11T09:49:09.022Z,8.77
2023-12-11T09:54:12.869Z,8.83
2023-12-11T09:59:16.458Z,8.99
2023-12-11T10:04:19.644Z,8.79
2023-12-11T10:09:35.911Z,9.04
2023-12-11T10:14:39.221Z,9.10
2023-12-11T10:19:42.947Z,9.36
2023-12-11T10:24:46.490Z,9.28
2023-12-11T10:29:49.737Z,9.55
2023-12-11T10:34:53.281Z,9.53
2023-12-11T10:39:57.105Z,9.53
2023-12-11T10:45:00.905Z,9.39
2023-12-11T10:50:04.725Z,9.42
2023-12-11T10:55:08.385Z,9.58
2023-12-11T11:00:16.109Z,9.50
2023-12-11T11:05:22.051Z,9.44
2023-12-11T11:10:33.458Z,9.23
2023-12-11T11:15:36.742Z,9.24
2023-12-11T11:20:40.685Z,9.52
2023-12-11T11:25:52.307Z,9.44
2023-12-11T11:30:55.743Z,9.32
2023-12-11T11:36:00.495Z,9.10
2023-12-11T11:41:05.608Z,9.07
2023-12-11T11:46:08.838Z,9.16
2023-12-11T11:51:12.123Z,9.14
2023-12-11T11:56:15.393Z,9.10
2023-12-11T12:01:19.162Z,9.03
2023-12-11T12:06:22.542Z,9.10
2023-12-11T12:11:28.382Z,9.18
2023-12-11T12:16:32.420Z,9.12
2023-12-11T12:21:55.841Z,9.21
2023-12-11T12:27:03.032Z,9.41
2023-12-11T12:32:06.674Z,9.39
2023-12-11T12:37:09.994Z,9.51
2023-12-11T12:42:13.209Z,9.49
2023-12-11T12:47:16.355Z,9.32
2023-12-11T12:52:26.875Z,9.44
2023-12-11T12:57:36.176Z,9.50
2023-12-11T13:02:39.492Z,9.31
2023-12-11T13:07:44.557Z,9.11
2023-12-11T13:12:50.240Z,8.98
2023-12-11T13:22:06.221Z,9.08
2023-12-11T13:27:08.714Z,9.08
2023-12-11T13:32:15.863Z,8.61
2023-12-11T13:37:20.397Z,8.51
2023-12-11T13:42:22.344Z,8.46
2023-12-11T13:47:24.237Z,8.39
2023-12-11T13:52:26.315Z,8.20
2023-12-11T13:57:28.511Z,8.10
2023-12-11T14:02:59.002Z,7.77
2023-12-11T14:07:53.400Z,7.75
2023-12-11T14:12:55.297Z,7.84
2023-12-11T14:17:57.870Z,7.85
2023-12-11T14:23:00.056Z,7.85
2023-12-11T14:28:04.984Z,7.95
2023-12-11T14:33:07.984Z,7.85
2023-12-11T14:38:09.804Z,7.60
2023-12-11T14:43:11.834Z,7.36
2023-12-11T14:48:13.963Z,7.41
2023-12-11T14:53:16.020Z,7.35
2023-12-11T14:58:18.765Z,7.17
2023-12-11T15:03:20.763Z,7.27
2023-12-11T15:08:22.783Z,7.25
2023-12-11T15:13:29.734Z,7.12
2023-12-11T15:18:51.001Z,7.05
2023-12-11T15:23:53.201Z,6.94
2023-12-11T15:28:55.099Z,6.86
2023-12-11T15:33:57.140Z,6.78
2023-12-11T15:38:59.412Z,6.69
2023-12-11T15:44:01.376Z,6.69
2023-12-11T15:49:04.152Z,6.67
2023-12-11T15:54:09.656Z,6.91
2023-12-11T15:59:11.534Z,6.94
2023-12-11T16:04:13.379Z,7.13
2023-12-11T16:09:18.588Z,7.22
2023-12-11T16:14:20.573Z,7.28
2023-12-11T16:19:22.590Z,7.55
2023-12-11T16:24:24.511Z,7.48
2023-12-11T16:29:26.406Z,7.47
2023-12-11T16:34:28.845Z,7.63
2023-12-11T16:39:30.894Z,7.63
2023-12-11T16:44:32.935Z,7.52
2023-12-11T16:49:44.525Z,7.43
2023-12-11T16:54:50.743Z,7.47
2023-12-11T16:59:52.629Z,7.37
2023-12-11T17:04:54.645Z,7.31
2023-12-11T17:09:59.163Z,7.33
2023-12-11T17:15:01.793Z,7.40
2023-12-11T17:20:05.081Z,7.44
2023-12-11T17:25:07.826Z,7.31
2023-12-11T17:30:12.402Z,7.49
2023-12-11T17:35:15.644Z,7.70
2023-12-11T17:40:18.454Z,7.87
2023-12-11T17:45:22.275Z,7.76
2023-12-11T17:50:26.811Z,7.68
2023-12-11T17:55:29.225Z,7.65
2023-12-11T18:00:31.258Z,7.66
2023-12-11T18:05:33.550Z,7.88
2023-12-11T18:10:35.633Z,7.80
2023-12-11T18:15:37.588Z,7.79
2023-12-11T18:20:40.011Z,7.92
2023-12-11T18:25:41.949Z,7.94
2023-12-11T18:30:43.978Z,7.75
2023-12-11T18:35:46.208Z,7.89
2023-12-11T18:40:49.390Z,8.04
2023-12-11T18:45:51.991Z,8.31
2023-12-11T18:50:54.906Z,8.15
2023-12-11T18:55:59.956Z,8.21
2023-12-11T19:01:02.668Z,8.24
2023-12-11T19:06:05.584Z,8.23
2023-12-11T19:11:09.286Z,8.27
2023-12-11T19:16:11.923Z,8.23
2023-12-11T19:21:16.466Z,8.28
2023-12-11T19:26:19.361Z,8.15
2023-12-11T19:31:21.991Z,7.93
2023-12-11T19:36:24.808Z,7.83
2023-12-11T19:41:27.174Z,7.89
2023-12-11T19:46:30.104Z,7.95
2023-12-11T19:51:32.277Z,7.97
2023-12-11T19:56:34.545Z,8.06
2023-12-11T20:07:51.528Z,8.17
2023-12-11T20:12:55.677Z,8.36
2023-12-11T20:18:00.051Z,8.58
2023-12-11T20:23:03.560Z,8.79
2023-12-11T20:28:07.289Z,8.96
2023-12-11T20:33:12.901Z,8.97
2023-12-11T20:38:18.951Z,9.04
2023-12-11T20:43:22.402Z,9.11
2023-12-11T20:48:25.901Z,8.95
2023-12-11T20:53:29.170Z,9.07
2023-12-11T20:58:32.541Z,9.15
2023-12-11T21:03:38.581Z,8.83
2023-12-11T21:08:44.147Z,8.78
2023-12-11T21:13:49.031Z,8.77
2023-12-11T21:18:52.319Z,8.55
2023-12-11T21:23:56.161Z,8.38
2023-12-11T21:29:00.675Z,8.63
2023-12-11T21:34:04.761Z,8.70
2023-12-11T21:39:08.159Z,8.41
2023-12-11T21:44:11.817Z,8.20
2023-12-11T21:49:19.218Z,8.12
2023-12-11T21:54:23.582Z,8.23
2023-12-11T21:59:35.355Z,8.41
2023-12-11T22:04:43.224Z,8.27
2023-12-11T22:09:55.948Z,8.47
2023-12-11T22:14:59.963Z,8.60
2023-12-11T22:20:04.660Z,8.33
2023-12-11T22:25:09.134Z,8.42
2023-12-11T22:30:13.336Z,8.38
2023-12-11T22:37:18.621Z,8.03
2023-12-11T22:42:22.184Z,7.86
2023-12-11T22:47:25.475Z,7.82
2023-12-11T22:52:29.033Z,7.57
2023-12-11T22:57:32.829Z,7.67
2023-12-11T23:02:36.412Z,7.66
2023-12-11T23:07:39.798Z,7.57
2023-12-11T23:12:43.392Z,7.55
2023-12-11T23:17:46.822Z,7.58
2023-12-11T23:22:50.272Z,7.73
2023-12-11T23:27:53.675Z,7.45
2023-12-11T23:32:57.123Z,7.40
2023-12-11T23:38:00.914Z,7.37
2023-12-11T23:43:04.405Z,7.36
2023-12-11T23:48:07.812Z,7.33
2023-12-11T23:53:11.210Z,7.25
2023-12-11T23:58:14.487Z,7.38
